»·PEaware :: FDX1014 KSEA-KOAK

FDX1014 :: KSEA-KOAK

FLIGHT INFORMATION

Flight Status: Arrived
Operator:
Federal Express
More flights by this operator :: More flights under this callsign
Pilot: Jim M. (18055)
Aircraft: BOEING 777-200
(B772)
More flights by this aircraft type
Origin: KSEA Seattle-Tacoma Intl
United States
Destination: KOAK Metro Oakland Intl
United States
More flights between these airports :: More routes between these airports
Route: +HAROB6 HISKU Q5 HUPTU SPAMY WINDSR2
File this flight plan on PilotEdge
Remarks:
Altitude:
(Current/Filed)
37,000ft
Speed:
(Current/Filed)
450kts
Departed: 26-Sep-20 10:04 AM
Arrived: 26-Sep-20 11:34 AM
Distance/Time
Traveled:
584nm/1:29
Distance/Time
To Go:
Arrived

Flight Plot

Page will automatically refresh every two minutes.

Flight plan parsing failed; only flown route is shown


Map Options




Map Legend


Flown Route
Filed Route
Departure Airport
Arrival Airport
Navaid (VOR, NDB)
Fix

Horizontal Profiles

Position Reports

Time Latitude Longitude Heading Altitude Ground
Speed
26-Sep-20 09:40 47.461053 -122.303687 180 446ft 0kts
26-Sep-20 09:41 47.461053 -122.303687 180 446ft 0kts
26-Sep-20 09:42 47.461053 -122.303687 180 446ft 0kts
26-Sep-20 09:43 47.461053 -122.303687 180 446ft 0kts
26-Sep-20 09:44 47.461053 -122.303687 180 446ft 0kts
26-Sep-20 09:45 47.461053 -122.303687 180 446ft 0kts
26-Sep-20 09:46 47.461053 -122.303687 180 446ft 0kts
26-Sep-20 09:47 47.461053 -122.303687 180 446ft 0kts
26-Sep-20 09:48 47.461053 -122.303687 180 446ft 0kts
26-Sep-20 09:49 47.461053 -122.303687 180 446ft 0kts
26-Sep-20 09:50 47.461053 -122.303687 180 446ft 0kts
26-Sep-20 09:51 47.461053 -122.303687 180 446ft 0kts
26-Sep-20 09:52 47.461100 -122.303686 180 446ft 1kts
26-Sep-20 09:53 47.461721 -122.303169 249 446ft 2kts
26-Sep-20 09:54 47.461761 -122.302830 269 446ft 0kts
26-Sep-20 09:55 47.461761 -122.302830 269 446ft 0kts
26-Sep-20 09:56 47.461761 -122.302830 269 446ft 0kts
26-Sep-20 09:57 47.461761 -122.302830 269 446ft 0kts
26-Sep-20 09:58 47.461761 -122.303034 270 446ft 0kts
26-Sep-20 09:59 47.461951 -122.304763 304 446ft 2kts
26-Sep-20 10:00 47.463484 -122.306023 302 446ft 0kts
26-Sep-20 10:01 47.463707 -122.306600 296 446ft 5kts
26-Sep-20 10:02 47.461692 -122.307746 177 446ft 29kts
26-Sep-20 10:03 47.423012 -122.307324 180 1976ft 186kts
26-Sep-20 10:04 47.364199 -122.309650 182 4342ft 258kts
26-Sep-20 10:05 47.315107 -122.375957 248 8242ft 267kts
26-Sep-20 10:06 47.307466 -122.485946 272 11773ft 286kts
26-Sep-20 10:07 47.311861 -122.615253 272 14430ft 340kts
26-Sep-20 10:08 47.312236 -122.757788 262 14997ft 348kts
26-Sep-20 10:09 47.284029 -122.891803 251 14990ft 340kts
26-Sep-20 10:10 47.244284 -123.018992 237 15919ft 354kts
26-Sep-20 10:11 47.172251 -123.120928 225 19554ft 377kts
26-Sep-20 10:12 47.078468 -123.203791 204 22421ft 430kts
26-Sep-20 10:13 46.950182 -123.206250 185 24769ft 484kts
26-Sep-20 10:14 46.814092 -123.189616 186 27404ft 499kts
26-Sep-20 10:15 46.673211 -123.173869 187 29701ft 516kts
26-Sep-20 10:16 46.528463 -123.157982 187 31731ft 529kts
26-Sep-20 10:17 46.381585 -123.141930 188 33968ft 526kts
26-Sep-20 10:18 46.235915 -123.126133 188 35775ft 525kts
26-Sep-20 10:19 46.090720 -123.110480 188 37228ft 526kts
26-Sep-20 10:20 45.944731 -123.094825 188 37244ft 523kts
26-Sep-20 10:21 45.799602 -123.079348 187 37241ft 524kts
26-Sep-20 10:22 45.657918 -123.064302 188 37249ft 517kts
26-Sep-20 10:23 45.514217 -123.049126 187 37258ft 519kts
26-Sep-20 10:24 45.369907 -123.033965 187 37257ft 519kts
26-Sep-20 10:25 45.225884 -123.018911 187 37252ft 518kts
26-Sep-20 10:26 45.082003 -123.003947 187 37252ft 518kts
26-Sep-20 10:27 44.938358 -122.989083 186 37250ft 519kts
26-Sep-20 10:28 44.794529 -122.974239 186 37251ft 518kts
26-Sep-20 10:29 44.650623 -122.959497 186 37262ft 518kts
26-Sep-20 10:30 44.506562 -122.944841 186 37272ft 518kts
26-Sep-20 10:31 44.363930 -122.939278 189 37284ft 513kts
26-Sep-20 10:32 44.220570 -122.935531 189 37287ft 513kts
26-Sep-20 10:34 44.077980 -122.931217 189 37284ft 513kts
26-Sep-20 10:35 43.934831 -122.926867 188 37280ft 512kts
26-Sep-20 10:36 43.792651 -122.922562 187 37279ft 512kts
26-Sep-20 10:37 43.650343 -122.918267 187 37283ft 511kts
26-Sep-20 10:38 43.507900 -122.913994 187 37284ft 511kts
26-Sep-20 10:39 43.365853 -122.909754 187 37284ft 511kts
26-Sep-20 10:40 43.223536 -122.905526 187 37284ft 511kts
26-Sep-20 10:41 43.081545 -122.901326 187 37295ft 510kts
26-Sep-20 10:42 42.939383 -122.897142 187 37302ft 509kts
26-Sep-20 10:43 42.797899 -122.892993 186 37308ft 509kts
26-Sep-20 10:44 42.656113 -122.888851 186 37309ft 508kts
26-Sep-20 10:45 42.514475 -122.884744 186 37304ft 509kts
26-Sep-20 10:46 42.372801 -122.880707 186 37300ft 509kts
26-Sep-20 10:47 42.231256 -122.876637 186 37301ft 508kts
26-Sep-20 10:48 42.089989 -122.872604 186 37303ft 508kts
26-Sep-20 10:49 41.948319 -122.868578 185 37303ft 508kts
26-Sep-20 10:50 41.807353 -122.864593 185 37301ft 507kts
26-Sep-20 10:50 41.689518 -122.861273 185 37295ft 507kts
26-Sep-20 10:51 41.548722 -122.857315 184 37292ft 507kts
26-Sep-20 10:52 41.407446 -122.853380 184 37288ft 506kts
26-Sep-20 10:54 41.243295 -122.846466 182 37260ft 507kts
26-Sep-20 10:54 41.125821 -122.838955 182 37252ft 507kts
26-Sep-20 10:55 40.984554 -122.830483 182 37237ft 506kts
26-Sep-20 10:56 40.843970 -122.822101 182 37219ft 507kts
26-Sep-20 10:57 40.703147 -122.813786 182 37201ft 506kts
26-Sep-20 10:58 40.561993 -122.805489 182 37186ft 506kts
26-Sep-20 10:59 40.421679 -122.797278 182 37152ft 505kts
26-Sep-20 11:00 40.280700 -122.789062 181 37152ft 505kts
26-Sep-20 11:01 40.140346 -122.780916 181 37152ft 505kts
26-Sep-20 11:02 40.000153 -122.772812 181 36848ft 499kts
26-Sep-20 11:03 39.860539 -122.764779 181 34185ft 502kts
26-Sep-20 11:04 39.721588 -122.756787 181 31733ft 499kts
26-Sep-20 11:05 39.583889 -122.748939 181 29520ft 489kts
26-Sep-20 11:06 39.450948 -122.718961 165 27300ft 485kts
26-Sep-20 11:07 39.326631 -122.655235 161 25186ft 473kts
26-Sep-20 11:08 39.208932 -122.597001 166 24238ft 433kts
26-Sep-20 11:09 39.092968 -122.575922 178 23809ft 420kts
26-Sep-20 11:10 38.979704 -122.554813 172 20891ft 414kts
26-Sep-20 11:11 38.868966 -122.525370 172 19351ft 400kts
26-Sep-20 11:12 38.761014 -122.498448 172 17659ft 392kts
26-Sep-20 11:13 38.655718 -122.473334 175 16109ft 378kts
26-Sep-20 11:14 38.552442 -122.458748 176 14624ft 369kts
26-Sep-20 11:15 38.451841 -122.443621 176 13179ft 358kts
26-Sep-20 11:16 38.354215 -122.428859 176 11778ft 347kts
26-Sep-20 11:17 38.262296 -122.414956 175 10465ft 313kts
26-Sep-20 11:18 38.176761 -122.401848 174 9229ft 302kts
26-Sep-20 11:19 38.095531 -122.389396 173 8060ft 288kts
26-Sep-20 11:20 38.017923 -122.370589 153 6917ft 283kts
26-Sep-20 11:21 37.952793 -122.313887 142 6990ft 284kts
26-Sep-20 11:22 37.889897 -122.253589 142 6943ft 285kts
26-Sep-20 11:23 37.826626 -122.193493 142 5693ft 278kts
26-Sep-20 11:24 37.769585 -122.130459 128 4997ft 266kts
26-Sep-20 11:25 37.725918 -122.063193 133 4991ft 237kts
26-Sep-20 11:26 37.674341 -122.012415 163 4656ft 235kts
26-Sep-20 11:27 37.614363 -122.027876 211 3816ft 210kts
26-Sep-20 11:28 37.608663 -122.082215 309 2894ft 179kts
26-Sep-20 11:29 37.642624 -122.126185 310 1774ft 156kts
26-Sep-20 11:30 37.669271 -122.165973 308 994ft 145kts
26-Sep-20 11:31 37.695469 -122.205250 307 202ft 147kts
26-Sep-20 11:32 37.711731 -122.229636 310 19ft 47kts
26-Sep-20 11:33 37.715484 -122.232935 1 19ft 10kts
26-Sep-20 11:34 37.713315 -122.228464 128 19ft 22kts
26-Sep-20 11:35 37.711682 -122.223747 45 19ft 10kts
26-Sep-20 11:36 37.714489 -122.220235 44 19ft 20kts
26-Sep-20 11:37 37.716811 -122.219307 41 19ft 9kts
26-Sep-20 11:38 37.718026 -122.219080 315 19ft 0kts

Navigation Log

Ident Type
Flight plan parsing failed, navigation log unavailable